sensor_id;sensor_type;location;lat;lon;timestamp;P1;durP1;ratioP1;P2;durP2;ratioP2
29570;SDS011;16814;52.118;11.436;2023-05-10T00:02:22;7.40;;;4.57;;
29570;SDS011;16814;52.118;11.436;2023-05-10T00:04:49;7.77;;;4.70;;
29570;SDS011;16814;52.118;11.436;2023-05-10T00:07:15;7.40;;;4.60;;
29570;SDS011;16814;52.118;11.436;2023-05-10T00:09:44;9.07;;;4.88;;
29570;SDS011;16814;52.118;11.436;2023-05-10T00:12:12;7.63;;;4.30;;
29570;SDS011;16814;52.118;11.436;2023-05-10T00:14:45;8.93;;;4.68;;
29570;SDS011;16814;52.118;11.436;2023-05-10T00:17:15;10.03;;;4.40;;
29570;SDS011;16814;52.118;11.436;2023-05-10T00:19:46;7.45;;;4.57;;
29570;SDS011;16814;52.118;11.436;2023-05-10T00:22:11;7.50;;;4.40;;
29570;SDS011;16814;52.118;11.436;2023-05-10T00:24:38;11.18;;;4.72;;
29570;SDS011;16814;52.118;11.436;2023-05-10T00:27:08;9.75;;;4.60;;
29570;SDS011;16814;52.118;11.436;2023-05-10T00:29:35;10.98;;;5.00;;
29570;SDS011;16814;52.118;11.436;2023-05-10T00:32:01;9.70;;;4.70;;
29570;SDS011;16814;52.118;11.436;2023-05-10T00:34:27;6.50;;;4.80;;
29570;SDS011;16814;52.118;11.436;2023-05-10T00:36:54;11.52;;;4.93;;
29570;SDS011;16814;52.118;11.436;2023-05-10T00:39:22;8.50;;;4.70;;
29570;SDS011;16814;52.118;11.436;2023-05-10T00:41:49;7.68;;;4.50;;
29570;SDS011;16814;52.118;11.436;2023-05-10T00:44:15;6.80;;;4.83;;
29570;SDS011;16814;52.118;11.436;2023-05-10T00:46:40;8.40;;;4.78;;
29570;SDS011;16814;52.118;11.436;2023-05-10T00:49:10;9.02;;;5.15;;
29570;SDS011;16814;52.118;11.436;2023-05-10T00:51:36;7.22;;;4.85;;
29570;SDS011;16814;52.118;11.436;2023-05-10T00:54:04;11.27;;;5.03;;
29570;SDS011;16814;52.118;11.436;2023-05-10T00:56:33;10.20;;;5.07;;
29570;SDS011;16814;52.118;11.436;2023-05-10T00:59:02;7.15;;;4.82;;
29570;SDS011;16814;52.118;11.436;2023-05-10T01:01:30;7.75;;;4.68;;
29570;SDS011;16814;52.118;11.436;2023-05-10T01:03:56;8.07;;;4.97;;
29570;SDS011;16814;52.118;11.436;2023-05-10T01:06:25;7.97;;;5.03;;
29570;SDS011;16814;52.118;11.436;2023-05-10T01:08:52;7.40;;;4.80;;
29570;SDS011;16814;52.118;11.436;2023-05-10T01:11:21;7.82;;;5.03;;
29570;SDS011;16814;52.118;11.436;2023-05-10T01:13:50;8.02;;;4.95;;
29570;SDS011;16814;52.118;11.436;2023-05-10T01:16:23;9.95;;;4.97;;
29570;SDS011;16814;52.118;11.436;2023-05-10T01:18:52;8.50;;;4.85;;
29570;SDS011;16814;52.118;11.436;2023-05-10T01:35:37;7.97;;;5.30;;
29570;SDS011;16814;52.118;11.436;2023-05-10T01:38:43;8.48;;;4.70;;
29570;SDS011;16814;52.118;11.436;2023-05-10T01:44:04;7.85;;;4.70;;
29570;SDS011;16814;52.118;11.436;2023-05-10T01:46:53;9.40;;;5.07;;
29570;SDS011;16814;52.118;11.436;2023-05-10T01:49:31;10.05;;;5.63;;
29570;SDS011;16814;52.118;11.436;2023-05-10T01:52:09;7.95;;;5.15;;
29570;SDS011;16814;52.118;11.436;2023-05-10T01:54:41;8.65;;;5.00;;
29570;SDS011;16814;52.118;11.436;2023-05-10T01:57:13;8.77;;;5.18;;
29570;SDS011;16814;52.118;11.436;2023-05-10T01:59:43;9.80;;;5.18;;
29570;SDS011;16814;52.118;11.436;2023-05-10T02:02:13;11.15;;;5.15;;
29570;SDS011;16814;52.118;11.436;2023-05-10T02:04:43;8.10;;;5.22;;
29570;SDS011;16814;52.118;11.436;2023-05-10T02:07:11;10.20;;;5.10;;
29570;SDS011;16814;52.118;11.436;2023-05-10T02:09:41;7.93;;;5.10;;
29570;SDS011;16814;52.118;11.436;2023-05-10T02:12:17;11.20;;;5.57;;
29570;SDS011;16814;52.118;11.436;2023-05-10T02:14:46;11.18;;;5.75;;
29570;SDS011;16814;52.118;11.436;2023-05-10T02:17:20;9.18;;;5.70;;
29570;SDS011;16814;52.118;11.436;2023-05-10T02:19:47;10.18;;;5.60;;
29570;SDS011;16814;52.118;11.436;2023-05-10T02:22:14;11.32;;;6.38;;
29570;SDS011;16814;52.118;11.436;2023-05-10T02:24:43;11.13;;;5.77;;
29570;SDS011;16814;52.118;11.436;2023-05-10T02:27:11;9.50;;;6.03;;
29570;SDS011;16814;52.118;11.436;2023-05-10T02:29:39;8.02;;;5.55;;
29570;SDS011;16814;52.118;11.436;2023-05-10T02:32:15;8.57;;;5.27;;
29570;SDS011;16814;52.118;11.436;2023-05-10T02:34:42;9.32;;;5.80;;
29570;SDS011;16814;52.118;11.436;2023-05-10T02:37:13;9.70;;;5.53;;
29570;SDS011;16814;52.118;11.436;2023-05-10T02:39:46;10.32;;;5.85;;
29570;SDS011;16814;52.118;11.436;2023-05-10T02:42:17;13.75;;;6.47;;
29570;SDS011;16814;52.118;11.436;2023-05-10T02:44:47;13.10;;;5.57;;
29570;SDS011;16814;52.118;11.436;2023-05-10T02:47:15;14.05;;;5.38;;
29570;SDS011;16814;52.118;11.436;2023-05-10T02:49:43;11.97;;;5.57;;
29570;SDS011;16814;52.118;11.436;2023-05-10T02:52:10;9.93;;;5.60;;
29570;SDS011;16814;52.118;11.436;2023-05-10T02:55:06;8.27;;;5.68;;
29570;SDS011;16814;52.118;11.436;2023-05-10T02:57:40;8.45;;;5.70;;
29570;SDS011;16814;52.118;11.436;2023-05-10T03:00:17;11.13;;;5.50;;
29570;SDS011;16814;52.118;11.436;2023-05-10T03:02:53;9.80;;;5.50;;
29570;SDS011;16814;52.118;11.436;2023-05-10T03:05:21;12.75;;;5.90;;
29570;SDS011;16814;52.118;11.436;2023-05-10T03:07:48;9.77;;;5.95;;
29570;SDS011;16814;52.118;11.436;2023-05-10T03:10:17;6.97;;;5.15;;
29570;SDS011;16814;52.118;11.436;2023-05-10T03:12:52;9.95;;;5.50;;
29570;SDS011;16814;52.118;11.436;2023-05-10T03:18:50;10.02;;;6.10;;
29570;SDS011;16814;52.118;11.436;2023-05-10T03:21:25;7.60;;;5.65;;
29570;SDS011;16814;52.118;11.436;2023-05-10T03:23:59;9.80;;;5.88;;
29570;SDS011;16814;52.118;11.436;2023-05-10T03:26:31;9.25;;;5.57;;
29570;SDS011;16814;52.118;11.436;2023-05-10T03:28:57;11.38;;;5.63;;
29570;SDS011;16814;52.118;11.436;2023-05-10T03:31:25;7.35;;;5.25;;
29570;SDS011;16814;52.118;11.436;2023-05-10T03:33:53;8.40;;;5.45;;
29570;SDS011;16814;52.118;11.436;2023-05-10T03:36:21;9.85;;;4.85;;
29570;SDS011;16814;52.118;11.436;2023-05-10T03:38:49;8.60;;;5.63;;
29570;SDS011;16814;52.118;11.436;2023-05-10T03:41:17;7.68;;;5.18;;
29570;SDS011;16814;52.118;11.436;2023-05-10T03:43:44;9.70;;;5.53;;
29570;SDS011;16814;52.118;11.436;2023-05-10T03:46:11;8.63;;;5.60;;
29570;SDS011;16814;52.118;11.436;2023-05-10T03:48:37;12.93;;;5.70;;
29570;SDS011;16814;52.118;11.436;2023-05-10T03:51:05;10.23;;;5.95;;
29570;SDS011;16814;52.118;11.436;2023-05-10T03:53:32;8.23;;;5.72;;
29570;SDS011;16814;52.118;11.436;2023-05-10T03:56:02;14.77;;;5.82;;
29570;SDS011;16814;52.118;11.436;2023-05-10T03:58:28;8.63;;;5.38;;
29570;SDS011;16814;52.118;11.436;2023-05-10T04:00:56;9.27;;;5.47;;
29570;SDS011;16814;52.118;11.436;2023-05-10T04:03:23;11.25;;;5.97;;
29570;SDS011;16814;52.118;11.436;2023-05-10T04:05:58;12.88;;;6.25;;
29570;SDS011;16814;52.118;11.436;2023-05-10T04:08:30;8.18;;;4.90;;
29570;SDS011;16814;52.118;11.436;2023-05-10T04:11:09;10.45;;;5.40;;
29570;SDS011;16814;52.118;11.436;2023-05-10T04:13:37;13.55;;;5.40;;
29570;SDS011;16814;52.118;11.436;2023-05-10T04:16:04;15.83;;;6.50;;
29570;SDS011;16814;52.118;11.436;2023-05-10T04:18:31;10.07;;;5.65;;
29570;SDS011;16814;52.118;11.436;2023-05-10T04:20:59;20.88;;;6.68;;
29570;SDS011;16814;52.118;11.436;2023-05-10T04:23:28;10.27;;;5.60;;
29570;SDS011;16814;52.118;11.436;2023-05-10T04:26:01;12.07;;;5.30;;
29570;SDS011;16814;52.118;11.436;2023-05-10T04:28:29;9.20;;;5.60;;
29570;SDS011;16814;52.118;11.436;2023-05-10T04:31:03;9.00;;;6.07;;
29570;SDS011;16814;52.118;11.436;2023-05-10T04:33:29;9.95;;;5.15;;
29570;SDS011;16814;52.118;11.436;2023-05-10T04:35:57;13.77;;;5.50;;
29570;SDS011;16814;52.118;11.436;2023-05-10T04:38:23;12.30;;;5.30;;
29570;SDS011;16814;52.118;11.436;2023-05-10T04:40:52;8.27;;;5.35;;
29570;SDS011;16814;52.118;11.436;2023-05-10T04:43:19;8.82;;;5.35;;
29570;SDS011;16814;52.118;11.436;2023-05-10T04:45:46;8.97;;;5.50;;
29570;SDS011;16814;52.118;11.436;2023-05-10T04:48:13;7.60;;;5.05;;
29570;SDS011;16814;52.118;11.436;2023-05-10T04:50:40;9.93;;;5.10;;
29570;SDS011;16814;52.118;11.436;2023-05-10T04:53:17;9.50;;;5.22;;
29570;SDS011;16814;52.118;11.436;2023-05-10T04:55:45;12.43;;;5.10;;
29570;SDS011;16814;52.118;11.436;2023-05-10T04:58:13;8.45;;;5.30;;
29570;SDS011;16814;52.118;11.436;2023-05-10T05:00:40;11.23;;;5.40;;
29570;SDS011;16814;52.118;11.436;2023-05-10T05:03:10;7.90;;;5.13;;
29570;SDS011;16814;52.118;11.436;2023-05-10T05:05:37;11.27;;;5.38;;
29570;SDS011;16814;52.118;11.436;2023-05-10T05:08:05;7.03;;;4.68;;
29570;SDS011;16814;52.118;11.436;2023-05-10T05:10:34;7.15;;;4.82;;
29570;SDS011;16814;52.118;11.436;2023-05-10T05:13:02;6.90;;;4.30;;
29570;SDS011;16814;52.118;11.436;2023-05-10T05:15:37;8.27;;;4.20;;
29570;SDS011;16814;52.118;11.436;2023-05-10T05:18:05;6.75;;;3.92;;
29570;SDS011;16814;52.118;11.436;2023-05-10T05:20:31;8.85;;;4.22;;
29570;SDS011;16814;52.118;11.436;2023-05-10T05:23:01;15.00;;;4.30;;
29570;SDS011;16814;52.118;11.436;2023-05-10T05:25:28;7.45;;;4.20;;
29570;SDS011;16814;52.118;11.436;2023-05-10T05:27:55;9.50;;;4.20;;
29570;SDS011;16814;52.118;11.436;2023-05-10T05:30:25;7.18;;;3.90;;
29570;SDS011;16814;52.118;11.436;2023-05-10T05:32:52;7.77;;;4.40;;
29570;SDS011;16814;52.118;11.436;2023-05-10T05:35:18;13.70;;;4.60;;
29570;SDS011;16814;52.118;11.436;2023-05-10T05:37:46;7.57;;;4.00;;
29570;SDS011;16814;52.118;11.436;2023-05-10T05:40:14;11.90;;;4.63;;
29570;SDS011;16814;52.118;11.436;2023-05-10T05:42:41;7.40;;;3.67;;
29570;SDS011;16814;52.118;11.436;2023-05-10T05:45:09;4.80;;;3.78;;
29570;SDS011;16814;52.118;11.436;2023-05-10T05:47:38;10.27;;;4.85;;
29570;SDS011;16814;52.118;11.436;2023-05-10T05:50:10;14.63;;;4.78;;
29570;SDS011;16814;52.118;11.436;2023-05-10T05:52:37;5.78;;;4.28;;
29570;SDS011;16814;52.118;11.436;2023-05-10T05:55:04;6.78;;;4.55;;
29570;SDS011;16814;52.118;11.436;2023-05-10T05:57:31;9.52;;;5.25;;
29570;SDS011;16814;52.118;11.436;2023-05-10T05:59:59;11.13;;;4.60;;
29570;SDS011;16814;52.118;11.436;2023-05-10T06:02:25;10.82;;;4.72;;
29570;SDS011;16814;52.118;11.436;2023-05-10T06:04:52;8.95;;;4.50;;
29570;SDS011;16814;52.118;11.436;2023-05-10T06:07:19;11.35;;;4.68;;
29570;SDS011;16814;52.118;11.436;2023-05-10T06:09:46;9.52;;;4.70;;
29570;SDS011;16814;52.118;11.436;2023-05-10T06:12:14;9.63;;;4.82;;
29570;SDS011;16814;52.118;11.436;2023-05-10T06:14:42;8.80;;;4.88;;
29570;SDS011;16814;52.118;11.436;2023-05-10T06:17:09;9.75;;;4.80;;
29570;SDS011;16814;52.118;11.436;2023-05-10T06:19:36;13.90;;;5.10;;
29570;SDS011;16814;52.118;11.436;2023-05-10T06:22:03;12.43;;;5.80;;
29570;SDS011;16814;52.118;11.436;2023-05-10T06:24:31;10.33;;;4.90;;
29570;SDS011;16814;52.118;11.436;2023-05-10T06:26:57;8.93;;;4.78;;
29570;SDS011;16814;52.118;11.436;2023-05-10T06:29:28;7.45;;;4.85;;
29570;SDS011;16814;52.118;11.436;2023-05-10T06:31:55;6.72;;;4.47;;
29570;SDS011;16814;52.118;11.436;2023-05-10T06:34:22;7.45;;;5.03;;
29570;SDS011;16814;52.118;11.436;2023-05-10T06:36:58;8.48;;;4.63;;
29570;SDS011;16814;52.118;11.436;2023-05-10T06:39:24;6.20;;;4.63;;
29570;SDS011;16814;52.118;11.436;2023-05-10T06:41:50;8.02;;;4.80;;
29570;SDS011;16814;52.118;11.436;2023-05-10T06:44:19;11.60;;;4.93;;
29570;SDS011;16814;52.118;11.436;2023-05-10T06:46:47;9.70;;;5.30;;
29570;SDS011;16814;52.118;11.436;2023-05-10T06:49:14;9.30;;;5.43;;
29570;SDS011;16814;52.118;11.436;2023-05-10T06:51:41;8.40;;;4.80;;
29570;SDS011;16814;52.118;11.436;2023-05-10T06:54:07;8.50;;;4.95;;
29570;SDS011;16814;52.118;11.436;2023-05-10T06:56:36;13.77;;;7.13;;
29570;SDS011;16814;52.118;11.436;2023-05-10T06:59:03;16.17;;;8.17;;
29570;SDS011;16814;52.118;11.436;2023-05-10T07:01:30;9.65;;;5.88;;
29570;SDS011;16814;52.118;11.436;2023-05-10T07:03:56;10.10;;;5.10;;
29570;SDS011;16814;52.118;11.436;2023-05-10T07:06:24;10.18;;;5.38;;
29570;SDS011;16814;52.118;11.436;2023-05-10T07:08:51;9.13;;;5.15;;
29570;SDS011;16814;52.118;11.436;2023-05-10T07:11:18;8.65;;;5.03;;
29570;SDS011;16814;52.118;11.436;2023-05-10T07:13:43;9.35;;;5.15;;
29570;SDS011;16814;52.118;11.436;2023-05-10T07:16:11;8.27;;;5.10;;
29570;SDS011;16814;52.118;11.436;2023-05-10T07:18:37;7.47;;;5.20;;
29570;SDS011;16814;52.118;11.436;2023-05-10T07:21:05;12.95;;;5.88;;
29570;SDS011;16814;52.118;11.436;2023-05-10T07:23:36;9.43;;;5.15;;
29570;SDS011;16814;52.118;11.436;2023-05-10T07:26:03;12.77;;;5.90;;
29570;SDS011;16814;52.118;11.436;2023-05-10T07:28:31;12.98;;;6.20;;
29570;SDS011;16814;52.118;11.436;2023-05-10T07:30:58;13.20;;;7.15;;
29570;SDS011;16814;52.118;11.436;2023-05-10T07:33:23;10.47;;;5.67;;
29570;SDS011;16814;52.118;11.436;2023-05-10T07:35:53;8.65;;;5.35;;
29570;SDS011;16814;52.118;11.436;2023-05-10T07:38:20;10.38;;;5.30;;
29570;SDS011;16814;52.118;11.436;2023-05-10T07:40:46;12.73;;;6.53;;
29570;SDS011;16814;52.118;11.436;2023-05-10T07:43:14;12.00;;;5.60;;
29570;SDS011;16814;52.118;11.436;2023-05-10T07:45:39;12.80;;;5.60;;
29570;SDS011;16814;52.118;11.436;2023-05-10T07:48:16;9.95;;;5.75;;
29570;SDS011;16814;52.118;11.436;2023-05-10T07:50:43;10.60;;;5.43;;
29570;SDS011;16814;52.118;11.436;2023-05-10T07:53:11;10.07;;;5.15;;
29570;SDS011;16814;52.118;11.436;2023-05-10T07:55:39;9.82;;;5.00;;
29570;SDS011;16814;52.118;11.436;2023-05-10T07:58:06;10.60;;;5.30;;
29570;SDS011;16814;52.118;11.436;2023-05-10T08:00:33;11.02;;;5.07;;
29570;SDS011;16814;52.118;11.436;2023-05-10T08:03:00;9.15;;;5.28;;
29570;SDS011;16814;52.118;11.436;2023-05-10T08:05:35;11.25;;;5.13;;
29570;SDS011;16814;52.118;11.436;2023-05-10T08:08:01;10.20;;;5.28;;
29570;SDS011;16814;52.118;11.436;2023-05-10T08:10:27;11.88;;;5.20;;
29570;SDS011;16814;52.118;11.436;2023-05-10T08:12:55;10.77;;;5.07;;
29570;SDS011;16814;52.118;11.436;2023-05-10T08:15:25;14.23;;;5.53;;
29570;SDS011;16814;52.118;11.436;2023-05-10T08:18:02;11.38;;;5.25;;
29570;SDS011;16814;52.118;11.436;2023-05-10T08:20:29;9.05;;;4.70;;
29570;SDS011;16814;52.118;11.436;2023-05-10T08:22:56;11.07;;;5.30;;
29570;SDS011;16814;52.118;11.436;2023-05-10T08:25:22;12.30;;;5.67;;
29570;SDS011;16814;52.118;11.436;2023-05-10T08:27:49;13.65;;;6.13;;
29570;SDS011;16814;52.118;11.436;2023-05-10T08:30:16;8.27;;;5.23;;
29570;SDS011;16814;52.118;11.436;2023-05-10T08:32:42;9.57;;;5.35;;
29570;SDS011;16814;52.118;11.436;2023-05-10T08:35:10;10.77;;;5.10;;
29570;SDS011;16814;52.118;11.436;2023-05-10T08:37:37;11.05;;;5.93;;
29570;SDS011;16814;52.118;11.436;2023-05-10T08:40:05;13.47;;;5.60;;
29570;SDS011;16814;52.118;11.436;2023-05-10T08:42:35;7.78;;;5.47;;
29570;SDS011;16814;52.118;11.436;2023-05-10T08:45:06;12.05;;;5.65;;
29570;SDS011;16814;52.118;11.436;2023-05-10T08:47:40;9.97;;;5.33;;
29570;SDS011;16814;52.118;11.436;2023-05-10T08:50:17;8.93;;;5.30;;
29570;SDS011;16814;52.118;11.436;2023-05-10T08:52:46;11.10;;;6.20;;
29570;SDS011;16814;52.118;11.436;2023-05-10T08:55:17;11.93;;;5.63;;
29570;SDS011;16814;52.118;11.436;2023-05-10T08:57:46;10.00;;;5.53;;
29570;SDS011;16814;52.118;11.436;2023-05-10T09:00:12;13.25;;;5.60;;
29570;SDS011;16814;52.118;11.436;2023-05-10T09:02:39;10.93;;;6.45;;
29570;SDS011;16814;52.118;11.436;2023-05-10T09:05:08;15.27;;;6.10;;
29570;SDS011;16814;52.118;11.436;2023-05-10T09:07:36;8.65;;;5.70;;
29570;SDS011;16814;52.118;11.436;2023-05-10T09:10:02;11.80;;;5.43;;
29570;SDS011;16814;52.118;11.436;2023-05-10T09:12:29;10.95;;;5.45;;
29570;SDS011;16814;52.118;11.436;2023-05-10T09:14:56;8.35;;;5.53;;
29570;SDS011;16814;52.118;11.436;2023-05-10T09:17:25;11.65;;;5.85;;
29570;SDS011;16814;52.118;11.436;2023-05-10T09:19:59;12.27;;;6.00;;
29570;SDS011;16814;52.118;11.436;2023-05-10T09:22:27;10.38;;;5.72;;
29570;SDS011;16814;52.118;11.436;2023-05-10T09:25:12;9.75;;;5.60;;
29570;SDS011;16814;52.118;11.436;2023-05-10T09:27:45;10.30;;;5.90;;
29570;SDS011;16814;52.118;11.436;2023-05-10T09:30:26;9.33;;;5.87;;
29570;SDS011;16814;52.118;11.436;2023-05-10T09:32:55;15.02;;;6.32;;
29570;SDS011;16814;52.118;11.436;2023-05-10T09:35:24;9.50;;;6.00;;
29570;SDS011;16814;52.118;11.436;2023-05-10T09:37:58;8.90;;;6.30;;
29570;SDS011;16814;52.118;11.436;2023-05-10T09:40:28;9.98;;;5.60;;
29570;SDS011;16814;52.118;11.436;2023-05-10T09:43:02;11.52;;;6.28;;
29570;SDS011;16814;52.118;11.436;2023-05-10T09:45:36;10.88;;;6.55;;
29570;SDS011;16814;52.118;11.436;2023-05-10T09:48:04;14.40;;;5.97;;
29570;SDS011;16814;52.118;11.436;2023-05-10T09:50:32;11.68;;;6.38;;
29570;SDS011;16814;52.118;11.436;2023-05-10T09:53:01;11.95;;;6.75;;
29570;SDS011;16814;52.118;11.436;2023-05-10T09:55:44;10.52;;;7.03;;
29570;SDS011;16814;52.118;11.436;2023-05-10T09:58:14;16.80;;;6.85;;
29570;SDS011;16814;52.118;11.436;2023-05-10T10:00:41;10.35;;;6.57;;
29570;SDS011;16814;52.118;11.436;2023-05-10T10:03:16;10.80;;;6.53;;
29570;SDS011;16814;52.118;11.436;2023-05-10T10:05:43;13.83;;;6.37;;
29570;SDS011;16814;52.118;11.436;2023-05-10T10:08:19;10.68;;;6.55;;
29570;SDS011;16814;52.118;11.436;2023-05-10T10:10:47;14.57;;;6.53;;
29570;SDS011;16814;52.118;11.436;2023-05-10T10:13:16;11.07;;;6.65;;
29570;SDS011;16814;52.118;11.436;2023-05-10T10:15:53;14.55;;;6.93;;
29570;SDS011;16814;52.118;11.436;2023-05-10T10:18:20;11.95;;;6.53;;
29570;SDS011;16814;52.118;11.436;2023-05-10T10:20:53;12.60;;;6.40;;
29570;SDS011;16814;52.118;11.436;2023-05-10T10:23:22;12.07;;;6.32;;
29570;SDS011;16814;52.118;11.436;2023-05-10T10:25:50;15.30;;;6.00;;
29570;SDS011;16814;52.118;11.436;2023-05-10T10:34:27;7.85;;;4.63;;
29570;SDS011;16814;52.118;11.436;2023-05-10T10:36:56;12.27;;;6.22;;
29570;SDS011;16814;52.118;11.436;2023-05-10T10:39:22;7.53;;;5.47;;
29570;SDS011;16814;52.118;11.436;2023-05-10T10:41:55;8.23;;;5.22;;
29570;SDS011;16814;52.118;11.436;2023-05-10T10:44:33;8.57;;;5.20;;
29570;SDS011;16814;52.118;11.436;2023-05-10T10:57:47;9.38;;;5.55;;
29570;SDS011;16814;52.118;11.436;2023-05-10T11:00:34;8.60;;;5.53;;
29570;SDS011;16814;52.118;11.436;2023-05-10T11:03:05;9.63;;;5.63;;
29570;SDS011;16814;52.118;11.436;2023-05-10T11:05:47;7.25;;;5.30;;
29570;SDS011;16814;52.118;11.436;2023-05-10T11:08:32;6.35;;;4.55;;
29570;SDS011;16814;52.118;11.436;2023-05-10T11:16:18;5.50;;;4.60;;
29570;SDS011;16814;52.118;11.436;2023-05-10T11:19:03;6.20;;;4.93;;
29570;SDS011;16814;52.118;11.436;2023-05-10T11:24:33;9.82;;;5.60;;
29570;SDS011;16814;52.118;11.436;2023-05-10T11:27:00;8.90;;;5.50;;
29570;SDS011;16814;52.118;11.436;2023-05-10T11:29:27;12.50;;;6.10;;
29570;SDS011;16814;52.118;11.436;2023-05-10T11:31:56;7.53;;;5.68;;
29570;SDS011;16814;52.118;11.436;2023-05-10T11:36:55;10.70;;;5.68;;
29570;SDS011;16814;52.118;11.436;2023-05-10T11:39:25;8.45;;;6.07;;
29570;SDS011;16814;52.118;11.436;2023-05-10T11:42:00;11.67;;;6.00;;
29570;SDS011;16814;52.118;11.436;2023-05-10T11:44:32;10.48;;;5.80;;
29570;SDS011;16814;52.118;11.436;2023-05-10T11:47:01;8.75;;;5.35;;
29570;SDS011;16814;52.118;11.436;2023-05-10T11:49:29;7.63;;;5.75;;
29570;SDS011;16814;52.118;11.436;2023-05-10T11:52:05;8.83;;;5.10;;
29570;SDS011;16814;52.118;11.436;2023-05-10T11:54:33;10.60;;;5.90;;
29570;SDS011;16814;52.118;11.436;2023-05-10T11:57:00;8.70;;;6.00;;
29570;SDS011;16814;52.118;11.436;2023-05-10T11:59:29;7.10;;;5.55;;
29570;SDS011;16814;52.118;11.436;2023-05-10T12:01:57;8.13;;;5.95;;
29570;SDS011;16814;52.118;11.436;2023-05-10T12:04:26;7.05;;;5.85;;
29570;SDS011;16814;52.118;11.436;2023-05-10T12:06:56;8.32;;;5.00;;
29570;SDS011;16814;52.118;11.436;2023-05-10T12:09:26;5.32;;;4.50;;
29570;SDS011;16814;52.118;11.436;2023-05-10T12:11:54;6.20;;;5.03;;
29570;SDS011;16814;52.118;11.436;2023-05-10T12:14:25;8.05;;;5.00;;
29570;SDS011;16814;52.118;11.436;2023-05-10T12:16:58;6.63;;;4.10;;
29570;SDS011;16814;52.118;11.436;2023-05-10T12:19:41;4.30;;;3.40;;
29570;SDS011;16814;52.118;11.436;2023-05-10T12:22:10;7.30;;;3.30;;
29570;SDS011;16814;52.118;11.436;2023-05-10T12:24:46;3.47;;;2.78;;
29570;SDS011;16814;52.118;11.436;2023-05-10T12:27:14;3.63;;;2.75;;
29570;SDS011;16814;52.118;11.436;2023-05-10T12:29:41;4.88;;;2.95;;
29570;SDS011;16814;52.118;11.436;2023-05-10T12:32:10;3.95;;;3.28;;
29570;SDS011;16814;52.118;11.436;2023-05-10T12:34:36;7.03;;;3.43;;
29570;SDS011;16814;52.118;11.436;2023-05-10T12:37:04;8.77;;;3.70;;
29570;SDS011;16814;52.118;11.436;2023-05-10T12:39:39;5.47;;;3.10;;
29570;SDS011;16814;52.118;11.436;2023-05-10T12:42:07;4.80;;;3.17;;
29570;SDS011;16814;52.118;11.436;2023-05-10T12:44:33;12.50;;;4.22;;
29570;SDS011;16814;52.118;11.436;2023-05-10T12:47:00;5.45;;;4.00;;
29570;SDS011;16814;52.118;11.436;2023-05-10T12:49:27;5.20;;;3.67;;
29570;SDS011;16814;52.118;11.436;2023-05-10T12:51:54;6.85;;;3.50;;
29570;SDS011;16814;52.118;11.436;2023-05-10T12:54:22;5.10;;;3.70;;
29570;SDS011;16814;52.118;11.436;2023-05-10T12:56:47;7.10;;;3.65;;
29570;SDS011;16814;52.118;11.436;2023-05-10T12:59:15;3.60;;;3.30;;
29570;SDS011;16814;52.118;11.436;2023-05-10T13:01:43;7.82;;;4.15;;
29570;SDS011;16814;52.118;11.436;2023-05-10T13:04:11;4.70;;;3.40;;
29570;SDS011;16814;52.118;11.436;2023-05-10T13:06:38;4.30;;;3.58;;
29570;SDS011;16814;52.118;11.436;2023-05-10T13:09:04;7.20;;;5.77;;
29570;SDS011;16814;52.118;11.436;2023-05-10T13:11:34;6.53;;;5.25;;
29570;SDS011;16814;52.118;11.436;2023-05-10T13:14:02;6.45;;;5.43;;
29570;SDS011;16814;52.118;11.436;2023-05-10T13:16:30;7.68;;;6.28;;
29570;SDS011;16814;52.118;11.436;2023-05-10T13:18:56;6.95;;;6.20;;
29570;SDS011;16814;52.118;11.436;2023-05-10T13:21:22;7.07;;;6.10;;
29570;SDS011;16814;52.118;11.436;2023-05-10T13:23:49;7.63;;;6.35;;
29570;SDS011;16814;52.118;11.436;2023-05-10T13:26:16;7.55;;;6.63;;
29570;SDS011;16814;52.118;11.436;2023-05-10T13:28:44;7.20;;;6.50;;
29570;SDS011;16814;52.118;11.436;2023-05-10T13:31:12;8.88;;;6.88;;
29570;SDS011;16814;52.118;11.436;2023-05-10T13:33:39;7.03;;;6.33;;
29570;SDS011;16814;52.118;11.436;2023-05-10T13:36:07;4.63;;;4.13;;
29570;SDS011;16814;52.118;11.436;2023-05-10T13:38:35;4.38;;;3.40;;
29570;SDS011;16814;52.118;11.436;2023-05-10T13:41:01;4.65;;;3.05;;
29570;SDS011;16814;52.118;11.436;2023-05-10T13:43:28;2.70;;;2.30;;
29570;SDS011;16814;52.118;11.436;2023-05-10T13:45:54;2.10;;;1.88;;
29570;SDS011;16814;52.118;11.436;2023-05-10T13:48:22;2.47;;;2.10;;
29570;SDS011;16814;52.118;11.436;2023-05-10T13:50:56;3.58;;;2.30;;
29570;SDS011;16814;52.118;11.436;2023-05-10T13:53:25;3.60;;;2.33;;
29570;SDS011;16814;52.118;11.436;2023-05-10T13:55:52;2.53;;;2.33;;
29570;SDS011;16814;52.118;11.436;2023-05-10T13:58:21;2.90;;;2.57;;
29570;SDS011;16814;52.118;11.436;2023-05-10T14:00:47;2.17;;;1.98;;
29570;SDS011;16814;52.118;11.436;2023-05-10T14:03:14;3.17;;;2.00;;
29570;SDS011;16814;52.118;11.436;2023-05-10T14:05:41;2.30;;;2.03;;
29570;SDS011;16814;52.118;11.436;2023-05-10T14:08:10;2.60;;;2.40;;
29570;SDS011;16814;52.118;11.436;2023-05-10T14:10:38;3.08;;;2.10;;
29570;SDS011;16814;52.118;11.436;2023-05-10T14:13:06;2.90;;;2.00;;
29570;SDS011;16814;52.118;11.436;2023-05-10T14:15:33;3.07;;;1.90;;
29570;SDS011;16814;52.118;11.436;2023-05-10T14:18:01;3.65;;;2.10;;
29570;SDS011;16814;52.118;11.436;2023-05-10T14:20:30;1.73;;;1.60;;
29570;SDS011;16814;52.118;11.436;2023-05-10T14:22:59;1.63;;;1.50;;
29570;SDS011;16814;52.118;11.436;2023-05-10T14:25:26;4.68;;;1.50;;
29570;SDS011;16814;52.118;11.436;2023-05-10T14:27:57;2.08;;;1.40;;
29570;SDS011;16814;52.118;11.436;2023-05-10T14:30:25;3.20;;;1.50;;
29570;SDS011;16814;52.118;11.436;2023-05-10T14:32:58;4.43;;;1.48;;
29570;SDS011;16814;52.118;11.436;2023-05-10T14:35:27;2.80;;;1.20;;
29570;SDS011;16814;52.118;11.436;2023-05-10T14:37:58;2.45;;;1.33;;
29570;SDS011;16814;52.118;11.436;2023-05-10T14:40:25;2.13;;;1.40;;
29570;SDS011;16814;52.118;11.436;2023-05-10T14:42:52;5.70;;;1.70;;
29570;SDS011;16814;52.118;11.436;2023-05-10T14:45:20;2.28;;;1.42;;
29570;SDS011;16814;52.118;11.436;2023-05-10T14:47:52;1.98;;;1.60;;
29570;SDS011;16814;52.118;11.436;2023-05-10T14:50:20;4.05;;;1.60;;
29570;SDS011;16814;52.118;11.436;2023-05-10T14:52:49;2.95;;;2.10;;
29570;SDS011;16814;52.118;11.436;2023-05-10T14:55:17;3.63;;;2.40;;
29570;SDS011;16814;52.118;11.436;2023-05-10T14:57:45;2.77;;;2.40;;
29570;SDS011;16814;52.118;11.436;2023-05-10T15:00:16;4.70;;;2.30;;
29570;SDS011;16814;52.118;11.436;2023-05-10T15:02:43;2.97;;;2.20;;
29570;SDS011;16814;52.118;11.436;2023-05-10T15:05:09;3.47;;;2.70;;
29570;SDS011;16814;52.118;11.436;2023-05-10T15:07:36;2.88;;;2.50;;
29570;SDS011;16814;52.118;11.436;2023-05-10T15:10:02;3.38;;;2.50;;
29570;SDS011;16814;52.118;11.436;2023-05-10T15:12:29;3.22;;;2.80;;
29570;SDS011;16814;52.118;11.436;2023-05-10T15:14:55;3.17;;;2.75;;
29570;SDS011;16814;52.118;11.436;2023-05-10T15:17:23;3.55;;;2.97;;
29570;SDS011;16814;52.118;11.436;2023-05-10T15:19:49;3.67;;;3.17;;
29570;SDS011;16814;52.118;11.436;2023-05-10T15:22:16;4.35;;;3.50;;
29570;SDS011;16814;52.118;11.436;2023-05-10T15:24:41;3.50;;;3.20;;
29570;SDS011;16814;52.118;11.436;2023-05-10T15:27:08;4.07;;;3.30;;
29570;SDS011;16814;52.118;11.436;2023-05-10T15:29:37;5.00;;;3.50;;
29570;SDS011;16814;52.118;11.436;2023-05-10T15:32:05;4.60;;;3.60;;